sensor_id;sensor_type;location;lat;lon;timestamp;P1;durP1;ratioP1;P2;durP2;ratioP2
51148;SDS011;37210;50.058;8.688;2023-11-19T00:02:12;5.18;;;4.40;;
51148;SDS011;37210;50.058;8.688;2023-11-19T00:04:39;5.13;;;4.32;;
51148;SDS011;37210;50.058;8.688;2023-11-19T00:07:07;4.93;;;4.53;;
51148;SDS011;37210;50.058;8.688;2023-11-19T00:09:36;4.47;;;4.15;;
51148;SDS011;37210;50.058;8.688;2023-11-19T00:12:04;5.40;;;4.90;;
51148;SDS011;37210;50.058;8.688;2023-11-19T00:14:32;6.45;;;5.85;;
51148;SDS011;37210;50.058;8.688;2023-11-19T00:17:01;5.97;;;4.80;;
51148;SDS011;37210;50.058;8.688;2023-11-19T00:19:30;5.35;;;4.85;;
51148;SDS011;37210;50.058;8.688;2023-11-19T00:21:58;5.55;;;5.05;;
51148;SDS011;37210;50.058;8.688;2023-11-19T00:24:28;4.68;;;4.28;;
51148;SDS011;37210;50.058;8.688;2023-11-19T00:26:56;5.18;;;4.78;;
51148;SDS011;37210;50.058;8.688;2023-11-19T00:29:23;4.93;;;4.47;;
51148;SDS011;37210;50.058;8.688;2023-11-19T00:31:51;6.18;;;4.40;;
51148;SDS011;37210;50.058;8.688;2023-11-19T00:34:20;5.07;;;4.68;;
51148;SDS011;37210;50.058;8.688;2023-11-19T00:36:48;4.68;;;4.28;;
51148;SDS011;37210;50.058;8.688;2023-11-19T00:39:16;4.80;;;4.40;;
51148;SDS011;37210;50.058;8.688;2023-11-19T00:41:47;5.50;;;5.00;;
51148;SDS011;37210;50.058;8.688;2023-11-19T00:44:15;5.60;;;5.00;;
51148;SDS011;37210;50.058;8.688;2023-11-19T00:46:42;4.63;;;4.30;;
51148;SDS011;37210;50.058;8.688;2023-11-19T00:49:10;5.07;;;4.68;;
51148;SDS011;37210;50.058;8.688;2023-11-19T00:51:39;4.95;;;4.55;;
51148;SDS011;37210;50.058;8.688;2023-11-19T00:54:07;5.45;;;4.40;;
51148;SDS011;37210;50.058;8.688;2023-11-19T00:56:34;4.65;;;4.25;;
51148;SDS011;37210;50.058;8.688;2023-11-19T00:59:03;5.85;;;4.72;;
51148;SDS011;37210;50.058;8.688;2023-11-19T01:01:30;4.75;;;4.25;;
51148;SDS011;37210;50.058;8.688;2023-11-19T01:03:58;4.40;;;4.10;;
51148;SDS011;37210;50.058;8.688;2023-11-19T01:06:28;4.57;;;4.13;;
51148;SDS011;37210;50.058;8.688;2023-11-19T01:08:58;4.95;;;4.47;;
51148;SDS011;37210;50.058;8.688;2023-11-19T01:11:26;4.45;;;4.05;;
51148;SDS011;37210;50.058;8.688;2023-11-19T01:13:54;4.53;;;4.10;;
51148;SDS011;37210;50.058;8.688;2023-11-19T01:16:21;4.70;;;4.30;;
51148;SDS011;37210;50.058;8.688;2023-11-19T01:18:49;4.30;;;4.00;;
51148;SDS011;37210;50.058;8.688;2023-11-19T01:21:17;4.97;;;4.57;;
51148;SDS011;37210;50.058;8.688;2023-11-19T01:23:44;4.60;;;4.10;;
51148;SDS011;37210;50.058;8.688;2023-11-19T01:26:13;4.88;;;4.50;;
51148;SDS011;37210;50.058;8.688;2023-11-19T01:28:41;5.25;;;4.53;;
51148;SDS011;37210;50.058;8.688;2023-11-19T01:31:10;4.18;;;3.78;;
51148;SDS011;37210;50.058;8.688;2023-11-19T01:33:38;3.50;;;3.20;;
51148;SDS011;37210;50.058;8.688;2023-11-19T01:36:07;4.18;;;3.85;;
51148;SDS011;37210;50.058;8.688;2023-11-19T01:38:36;4.40;;;4.00;;
51148;SDS011;37210;50.058;8.688;2023-11-19T01:41:04;3.85;;;3.50;;
51148;SDS011;37210;50.058;8.688;2023-11-19T01:43:33;4.20;;;3.90;;
51148;SDS011;37210;50.058;8.688;2023-11-19T01:46:02;3.67;;;3.38;;
51148;SDS011;37210;50.058;8.688;2023-11-19T01:48:32;3.72;;;3.42;;
51148;SDS011;37210;50.058;8.688;2023-11-19T01:51:02;4.07;;;3.78;;
51148;SDS011;37210;50.058;8.688;2023-11-19T01:53:31;3.55;;;3.25;;
51148;SDS011;37210;50.058;8.688;2023-11-19T01:56:01;3.35;;;3.05;;
51148;SDS011;37210;50.058;8.688;2023-11-19T01:58:29;3.28;;;3.00;;
51148;SDS011;37210;50.058;8.688;2023-11-19T02:00:59;3.05;;;2.67;;
51148;SDS011;37210;50.058;8.688;2023-11-19T02:03:30;3.00;;;2.80;;
51148;SDS011;37210;50.058;8.688;2023-11-19T02:05:59;3.35;;;3.05;;
51148;SDS011;37210;50.058;8.688;2023-11-19T02:08:26;3.25;;;2.90;;
51148;SDS011;37210;50.058;8.688;2023-11-19T02:10:54;3.40;;;3.10;;
51148;SDS011;37210;50.058;8.688;2023-11-19T02:13:22;3.22;;;2.92;;
51148;SDS011;37210;50.058;8.688;2023-11-19T02:15:50;3.45;;;3.15;;
51148;SDS011;37210;50.058;8.688;2023-11-19T02:18:20;3.00;;;2.80;;
51148;SDS011;37210;50.058;8.688;2023-11-19T02:20:49;2.83;;;2.63;;
51148;SDS011;37210;50.058;8.688;2023-11-19T02:23:17;2.90;;;2.70;;
51148;SDS011;37210;50.058;8.688;2023-11-19T02:25:47;2.80;;;2.60;;
51148;SDS011;37210;50.058;8.688;2023-11-19T02:28:30;2.85;;;2.65;;
51148;SDS011;37210;50.058;8.688;2023-11-19T02:30:58;2.95;;;2.30;;
51148;SDS011;37210;50.058;8.688;2023-11-19T02:33:26;2.35;;;2.17;;
51148;SDS011;37210;50.058;8.688;2023-11-19T02:35:54;2.85;;;2.65;;
51148;SDS011;37210;50.058;8.688;2023-11-19T02:38:21;2.40;;;2.30;;
51148;SDS011;37210;50.058;8.688;2023-11-19T02:40:49;2.55;;;2.35;;
51148;SDS011;37210;50.058;8.688;2023-11-19T02:43:16;2.53;;;2.33;;
51148;SDS011;37210;50.058;8.688;2023-11-19T02:45:46;2.65;;;2.45;;
51148;SDS011;37210;50.058;8.688;2023-11-19T02:48:14;2.25;;;2.05;;
51148;SDS011;37210;50.058;8.688;2023-11-19T02:50:41;2.10;;;2.00;;
51148;SDS011;37210;50.058;8.688;2023-11-19T02:53:09;1.92;;;1.83;;
51148;SDS011;37210;50.058;8.688;2023-11-19T02:55:38;2.20;;;2.00;;
51148;SDS011;37210;50.058;8.688;2023-11-19T02:58:06;2.63;;;2.22;;
51148;SDS011;37210;50.058;8.688;2023-11-19T03:00:46;1.98;;;1.88;;
51148;SDS011;37210;50.058;8.688;2023-11-19T03:03:20;2.33;;;2.13;;
51148;SDS011;37210;50.058;8.688;2023-11-19T03:05:51;2.15;;;2.00;;
51148;SDS011;37210;50.058;8.688;2023-11-19T03:08:19;1.85;;;1.75;;
51148;SDS011;37210;50.058;8.688;2023-11-19T03:10:47;2.00;;;1.90;;
51148;SDS011;37210;50.058;8.688;2023-11-19T03:13:15;1.88;;;1.77;;
51148;SDS011;37210;50.058;8.688;2023-11-19T03:15:43;1.90;;;1.80;;
51148;SDS011;37210;50.058;8.688;2023-11-19T03:18:13;2.13;;;1.92;;
51148;SDS011;37210;50.058;8.688;2023-11-19T03:20:40;1.60;;;1.50;;
51148;SDS011;37210;50.058;8.688;2023-11-19T03:23:08;1.92;;;1.80;;
51148;SDS011;37210;50.058;8.688;2023-11-19T03:25:36;1.85;;;1.73;;
51148;SDS011;37210;50.058;8.688;2023-11-19T03:28:03;1.90;;;1.80;;
51148;SDS011;37210;50.058;8.688;2023-11-19T03:30:32;1.92;;;1.83;;
51148;SDS011;37210;50.058;8.688;2023-11-19T03:33:00;2.20;;;1.70;;
51148;SDS011;37210;50.058;8.688;2023-11-19T03:35:29;2.00;;;1.90;;
51148;SDS011;37210;50.058;8.688;2023-11-19T03:37:58;1.70;;;1.60;;
51148;SDS011;37210;50.058;8.688;2023-11-19T03:40:27;1.85;;;1.50;;
51148;SDS011;37210;50.058;8.688;2023-11-19T03:42:55;2.30;;;1.80;;
51148;SDS011;37210;50.058;8.688;2023-11-19T03:45:23;1.77;;;1.67;;
51148;SDS011;37210;50.058;8.688;2023-11-19T03:47:51;1.80;;;1.58;;
51148;SDS011;37210;50.058;8.688;2023-11-19T03:50:19;2.60;;;1.85;;
51148;SDS011;37210;50.058;8.688;2023-11-19T03:52:49;2.22;;;1.88;;
51148;SDS011;37210;50.058;8.688;2023-11-19T03:55:16;2.13;;;1.88;;
51148;SDS011;37210;50.058;8.688;2023-11-19T03:57:44;1.73;;;1.63;;
51148;SDS011;37210;50.058;8.688;2023-11-19T04:00:13;1.80;;;1.70;;
51148;SDS011;37210;50.058;8.688;2023-11-19T04:02:41;2.00;;;1.90;;
51148;SDS011;37210;50.058;8.688;2023-11-19T04:05:10;1.85;;;1.73;;
51148;SDS011;37210;50.058;8.688;2023-11-19T04:07:38;2.00;;;1.90;;
51148;SDS011;37210;50.058;8.688;2023-11-19T04:10:06;1.75;;;1.65;;
51148;SDS011;37210;50.058;8.688;2023-11-19T04:12:35;1.95;;;1.77;;
51148;SDS011;37210;50.058;8.688;2023-11-19T04:15:03;1.65;;;1.55;;
51148;SDS011;37210;50.058;8.688;2023-11-19T04:17:32;1.55;;;1.45;;
51148;SDS011;37210;50.058;8.688;2023-11-19T04:20:00;1.90;;;1.80;;
51148;SDS011;37210;50.058;8.688;2023-11-19T04:22:30;1.90;;;1.77;;
51148;SDS011;37210;50.058;8.688;2023-11-19T04:24:57;1.75;;;1.50;;
51148;SDS011;37210;50.058;8.688;2023-11-19T04:27:27;1.65;;;1.55;;
51148;SDS011;37210;50.058;8.688;2023-11-19T04:29:54;2.25;;;1.90;;
51148;SDS011;37210;50.058;8.688;2023-11-19T04:32:22;1.70;;;1.60;;
51148;SDS011;37210;50.058;8.688;2023-11-19T04:34:51;1.88;;;1.73;;
51148;SDS011;37210;50.058;8.688;2023-11-19T04:37:19;1.70;;;1.60;;
51148;SDS011;37210;50.058;8.688;2023-11-19T04:39:46;1.98;;;1.65;;
51148;SDS011;37210;50.058;8.688;2023-11-19T04:42:14;1.75;;;1.50;;
51148;SDS011;37210;50.058;8.688;2023-11-19T04:44:47;1.77;;;1.67;;
51148;SDS011;37210;50.058;8.688;2023-11-19T04:47:14;1.55;;;1.45;;
51148;SDS011;37210;50.058;8.688;2023-11-19T04:49:42;2.38;;;2.05;;
51148;SDS011;37210;50.058;8.688;2023-11-19T04:52:10;1.73;;;1.63;;
51148;SDS011;37210;50.058;8.688;2023-11-19T04:54:42;2.17;;;1.95;;
51148;SDS011;37210;50.058;8.688;2023-11-19T04:57:10;2.03;;;1.90;;
51148;SDS011;37210;50.058;8.688;2023-11-19T04:59:38;1.73;;;1.63;;
51148;SDS011;37210;50.058;8.688;2023-11-19T05:02:08;2.92;;;1.95;;
51148;SDS011;37210;50.058;8.688;2023-11-19T05:04:36;1.90;;;1.80;;
51148;SDS011;37210;50.058;8.688;2023-11-19T05:07:04;2.05;;;1.85;;
51148;SDS011;37210;50.058;8.688;2023-11-19T05:09:33;1.60;;;1.50;;
51148;SDS011;37210;50.058;8.688;2023-11-19T05:12:00;1.83;;;1.60;;
51148;SDS011;37210;50.058;8.688;2023-11-19T05:14:28;1.50;;;1.40;;
51148;SDS011;37210;50.058;8.688;2023-11-19T05:16:56;1.92;;;1.40;;
51148;SDS011;37210;50.058;8.688;2023-11-19T05:19:25;1.65;;;1.55;;
51148;SDS011;37210;50.058;8.688;2023-11-19T05:21:53;1.40;;;1.30;;
51148;SDS011;37210;50.058;8.688;2023-11-19T05:24:20;1.70;;;1.60;;
51148;SDS011;37210;50.058;8.688;2023-11-19T05:26:48;1.52;;;1.42;;
51148;SDS011;37210;50.058;8.688;2023-11-19T05:29:16;2.30;;;2.08;;
51148;SDS011;37210;50.058;8.688;2023-11-19T05:31:44;2.00;;;1.90;;
51148;SDS011;37210;50.058;8.688;2023-11-19T05:34:14;2.53;;;1.90;;
51148;SDS011;37210;50.058;8.688;2023-11-19T05:36:45;1.90;;;1.80;;
51148;SDS011;37210;50.058;8.688;2023-11-19T05:39:15;1.83;;;1.73;;
51148;SDS011;37210;50.058;8.688;2023-11-19T05:41:44;2.53;;;1.92;;
51148;SDS011;37210;50.058;8.688;2023-11-19T05:44:12;2.95;;;2.13;;
51148;SDS011;37210;50.058;8.688;2023-11-19T05:46:39;2.35;;;2.20;;
51148;SDS011;37210;50.058;8.688;2023-11-19T05:49:08;2.63;;;2.33;;
51148;SDS011;37210;50.058;8.688;2023-11-19T05:51:36;2.40;;;2.30;;
51148;SDS011;37210;50.058;8.688;2023-11-19T05:54:06;2.20;;;2.10;;
51148;SDS011;37210;50.058;8.688;2023-11-19T05:56:36;3.22;;;2.45;;
51148;SDS011;37210;50.058;8.688;2023-11-19T05:59:04;2.78;;;2.58;;
51148;SDS011;37210;50.058;8.688;2023-11-19T06:01:35;2.58;;;2.38;;
51148;SDS011;37210;50.058;8.688;2023-11-19T06:04:05;2.58;;;2.42;;
51148;SDS011;37210;50.058;8.688;2023-11-19T06:06:33;2.58;;;2.38;;
51148;SDS011;37210;50.058;8.688;2023-11-19T06:09:01;2.75;;;2.55;;
51148;SDS011;37210;50.058;8.688;2023-11-19T06:11:34;3.45;;;2.63;;
51148;SDS011;37210;50.058;8.688;2023-11-19T06:14:02;2.05;;;1.95;;
51148;SDS011;37210;50.058;8.688;2023-11-19T06:16:31;3.03;;;2.35;;
51148;SDS011;37210;50.058;8.688;2023-11-19T06:18:59;2.40;;;2.20;;
51148;SDS011;37210;50.058;8.688;2023-11-19T06:21:27;3.30;;;3.00;;
51148;SDS011;37210;50.058;8.688;2023-11-19T06:23:54;2.85;;;2.65;;
51148;SDS011;37210;50.058;8.688;2023-11-19T06:26:22;2.72;;;2.53;;
51148;SDS011;37210;50.058;8.688;2023-11-19T06:28:51;3.30;;;3.00;;
51148;SDS011;37210;50.058;8.688;2023-11-19T06:31:25;2.85;;;2.65;;
51148;SDS011;37210;50.058;8.688;2023-11-19T06:33:53;2.30;;;2.20;;
51148;SDS011;37210;50.058;8.688;2023-11-19T06:36:20;2.60;;;2.40;;
51148;SDS011;37210;50.058;8.688;2023-11-19T06:38:48;2.60;;;2.40;;
51148;SDS011;37210;50.058;8.688;2023-11-19T06:41:16;2.60;;;2.40;;
51148;SDS011;37210;50.058;8.688;2023-11-19T06:43:44;2.47;;;2.22;;
51148;SDS011;37210;50.058;8.688;2023-11-19T06:46:19;2.58;;;2.38;;
51148;SDS011;37210;50.058;8.688;2023-11-19T06:48:53;2.53;;;2.42;;
51148;SDS011;37210;50.058;8.688;2023-11-19T06:51:35;2.70;;;2.50;;
51148;SDS011;37210;50.058;8.688;2023-11-19T06:54:15;2.70;;;2.50;;
51148;SDS011;37210;50.058;8.688;2023-11-19T06:56:51;2.63;;;2.45;;
51148;SDS011;37210;50.058;8.688;2023-11-19T06:59:24;2.28;;;2.08;;
51148;SDS011;37210;50.058;8.688;2023-11-19T07:05:05;2.20;;;2.10;;
51148;SDS011;37210;50.058;8.688;2023-11-19T07:07:38;2.75;;;2.10;;
51148;SDS011;37210;50.058;8.688;2023-11-19T07:10:09;2.00;;;1.90;;
51148;SDS011;37210;50.058;8.688;2023-11-19T07:12:37;2.03;;;1.90;;
51148;SDS011;37210;50.058;8.688;2023-11-19T07:15:07;2.00;;;1.90;;
51148;SDS011;37210;50.058;8.688;2023-11-19T07:17:36;2.30;;;2.10;;
51148;SDS011;37210;50.058;8.688;2023-11-19T07:20:08;2.10;;;1.95;;
51148;SDS011;37210;50.058;8.688;2023-11-19T07:22:44;2.03;;;1.88;;
51148;SDS011;37210;50.058;8.688;2023-11-19T07:25:12;2.33;;;2.10;;
51148;SDS011;37210;50.058;8.688;2023-11-19T07:27:40;2.15;;;1.98;;
51148;SDS011;37210;50.058;8.688;2023-11-19T07:30:12;2.15;;;2.00;;
51148;SDS011;37210;50.058;8.688;2023-11-19T07:32:40;1.90;;;1.80;;
51148;SDS011;37210;50.058;8.688;2023-11-19T07:35:08;2.22;;;2.08;;
51148;SDS011;37210;50.058;8.688;2023-11-19T07:37:36;2.00;;;1.90;;
51148;SDS011;37210;50.058;8.688;2023-11-19T07:40:05;2.20;;;2.00;;
51148;SDS011;37210;50.058;8.688;2023-11-19T07:42:34;2.67;;;2.15;;
51148;SDS011;37210;50.058;8.688;2023-11-19T07:45:04;2.35;;;2.15;;
51148;SDS011;37210;50.058;8.688;2023-11-19T07:47:34;2.33;;;2.13;;
51148;SDS011;37210;50.058;8.688;2023-11-19T07:50:02;4.38;;;3.97;;
51148;SDS011;37210;50.058;8.688;2023-11-19T07:52:30;2.20;;;1.90;;
51148;SDS011;37210;50.058;8.688;2023-11-19T07:54:57;2.47;;;2.28;;
51148;SDS011;37210;50.058;8.688;2023-11-19T07:57:25;2.05;;;1.92;;
51148;SDS011;37210;50.058;8.688;2023-11-19T07:59:56;3.53;;;2.65;;
51148;SDS011;37210;50.058;8.688;2023-11-19T08:02:24;3.28;;;2.97;;
51148;SDS011;37210;50.058;8.688;2023-11-19T08:04:53;3.53;;;3.22;;
51148;SDS011;37210;50.058;8.688;2023-11-19T08:07:21;2.80;;;2.60;;
51148;SDS011;37210;50.058;8.688;2023-11-19T08:09:48;2.63;;;2.40;;
51148;SDS011;37210;50.058;8.688;2023-11-19T08:12:16;3.33;;;2.78;;
51148;SDS011;37210;50.058;8.688;2023-11-19T08:14:44;2.78;;;2.58;;
51148;SDS011;37210;50.058;8.688;2023-11-19T08:17:11;3.45;;;2.58;;
51148;SDS011;37210;50.058;8.688;2023-11-19T08:19:39;3.00;;;2.33;;
51148;SDS011;37210;50.058;8.688;2023-11-19T08:22:08;2.35;;;2.15;;
51148;SDS011;37210;50.058;8.688;2023-11-19T08:24:36;2.28;;;2.08;;
51148;SDS011;37210;50.058;8.688;2023-11-19T08:27:04;2.33;;;2.13;;
51148;SDS011;37210;50.058;8.688;2023-11-19T08:29:31;2.45;;;2.20;;
51148;SDS011;37210;50.058;8.688;2023-11-19T08:32:00;3.33;;;2.60;;
51148;SDS011;37210;50.058;8.688;2023-11-19T08:34:29;2.40;;;2.05;;
51148;SDS011;37210;50.058;8.688;2023-11-19T08:36:56;2.70;;;1.90;;
51148;SDS011;37210;50.058;8.688;2023-11-19T08:39:25;2.22;;;1.90;;
51148;SDS011;37210;50.058;8.688;2023-11-19T08:41:53;1.85;;;1.75;;
51148;SDS011;37210;50.058;8.688;2023-11-19T08:44:21;2.17;;;1.90;;
51148;SDS011;37210;50.058;8.688;2023-11-19T08:46:49;2.22;;;2.03;;
51148;SDS011;37210;50.058;8.688;2023-11-19T08:49:17;3.08;;;2.10;;
51148;SDS011;37210;50.058;8.688;2023-11-19T08:51:44;2.00;;;1.67;;
51148;SDS011;37210;50.058;8.688;2023-11-19T08:54:12;2.25;;;1.70;;
51148;SDS011;37210;50.058;8.688;2023-11-19T08:56:41;2.20;;;2.00;;
51148;SDS011;37210;50.058;8.688;2023-11-19T08:59:09;2.45;;;2.20;;
51148;SDS011;37210;50.058;8.688;2023-11-19T09:01:37;2.17;;;1.98;;
51148;SDS011;37210;50.058;8.688;2023-11-19T09:04:04;2.47;;;2.10;;
51148;SDS011;37210;50.058;8.688;2023-11-19T09:06:32;1.95;;;1.85;;
51148;SDS011;37210;50.058;8.688;2023-11-19T09:08:59;2.67;;;2.47;;
51148;SDS011;37210;50.058;8.688;2023-11-19T09:11:28;2.67;;;2.47;;
51148;SDS011;37210;50.058;8.688;2023-11-19T09:13:57;2.17;;;1.98;;
51148;SDS011;37210;50.058;8.688;2023-11-19T09:16:25;2.25;;;2.03;;
51148;SDS011;37210;50.058;8.688;2023-11-19T09:18:52;2.67;;;2.33;;
51148;SDS011;37210;50.058;8.688;2023-11-19T09:21:20;3.83;;;2.50;;
51148;SDS011;37210;50.058;8.688;2023-11-19T09:23:48;2.17;;;1.98;;
51148;SDS011;37210;50.058;8.688;2023-11-19T09:26:16;3.22;;;1.83;;
51148;SDS011;37210;50.058;8.688;2023-11-19T09:28:43;5.30;;;4.47;;
51148;SDS011;37210;50.058;8.688;2023-11-19T09:31:16;9.98;;;8.43;;
51148;SDS011;37210;50.058;8.688;2023-11-19T09:33:44;5.63;;;3.75;;
51148;SDS011;37210;50.058;8.688;2023-11-19T09:36:12;6.60;;;6.00;;
51148;SDS011;37210;50.058;8.688;2023-11-19T09:38:40;7.60;;;2.35;;
51148;SDS011;37210;50.058;8.688;2023-11-19T09:41:09;5.93;;;5.20;;
51148;SDS011;37210;50.058;8.688;2023-11-19T09:43:38;9.73;;;8.73;;
51148;SDS011;37210;50.058;8.688;2023-11-19T09:46:09;4.13;;;3.63;;
51148;SDS011;37210;50.058;8.688;2023-11-19T09:48:39;5.88;;;4.43;;
51148;SDS011;37210;50.058;8.688;2023-11-19T09:51:07;5.78;;;4.78;;
51148;SDS011;37210;50.058;8.688;2023-11-19T09:53:35;9.30;;;8.25;;
51148;SDS011;37210;50.058;8.688;2023-11-19T09:56:04;9.23;;;7.63;;
51148;SDS011;37210;50.058;8.688;2023-11-19T09:58:33;4.30;;;3.65;;
51148;SDS011;37210;50.058;8.688;2023-11-19T10:01:02;11.05;;;9.73;;
51148;SDS011;37210;50.058;8.688;2023-11-19T10:03:33;6.82;;;5.95;;
51148;SDS011;37210;50.058;8.688;2023-11-19T10:06:05;11.07;;;7.95;;
51148;SDS011;37210;50.058;8.688;2023-11-19T10:08:36;8.38;;;7.43;;
51148;SDS011;37210;50.058;8.688;2023-11-19T10:11:05;3.10;;;2.42;;
51148;SDS011;37210;50.058;8.688;2023-11-19T10:13:34;3.58;;;2.30;;
51148;SDS011;37210;50.058;8.688;2023-11-19T10:16:06;12.85;;;11.05;;
51148;SDS011;37210;50.058;8.688;2023-11-19T10:18:37;3.13;;;2.92;;
51148;SDS011;37210;50.058;8.688;2023-11-19T10:21:06;6.07;;;4.35;;
51148;SDS011;37210;50.058;8.688;2023-11-19T10:23:47;11.48;;;10.25;;
51148;SDS011;37210;50.058;8.688;2023-11-19T10:26:17;4.00;;;3.60;;
51148;SDS011;37210;50.058;8.688;2023-11-19T10:28:46;5.97;;;4.40;;
51148;SDS011;37210;50.058;8.688;2023-11-19T10:31:14;13.07;;;10.85;;
51148;SDS011;37210;50.058;8.688;2023-11-19T10:33:42;5.85;;;3.38;;
51148;SDS011;37210;50.058;8.688;2023-11-19T10:36:12;12.63;;;10.68;;
51148;SDS011;37210;50.058;8.688;2023-11-19T10:38:41;9.45;;;7.88;;
51148;SDS011;37210;50.058;8.688;2023-11-19T10:41:28;31.63;;;27.58;;
51148;SDS011;37210;50.058;8.688;2023-11-19T10:43:56;13.90;;;8.55;;
51148;SDS011;37210;50.058;8.688;2023-11-19T10:46:24;26.48;;;20.73;;
51148;SDS011;37210;50.058;8.688;2023-11-19T10:49:04;4.35;;;2.78;;
51148;SDS011;37210;50.058;8.688;2023-11-19T10:51:34;8.70;;;6.03;;
51148;SDS011;37210;50.058;8.688;2023-11-19T10:54:02;10.95;;;6.53;;
51148;SDS011;37210;50.058;8.688;2023-11-19T10:56:33;11.23;;;8.38;;
51148;SDS011;37210;50.058;8.688;2023-11-19T10:59:01;14.27;;;10.00;;
51148;SDS011;37210;50.058;8.688;2023-11-19T11:01:32;6.07;;;5.18;;
51148;SDS011;37210;50.058;8.688;2023-11-19T11:04:10;10.95;;;7.80;;
51148;SDS011;37210;50.058;8.688;2023-11-19T11:06:43;9.38;;;5.03;;
51148;SDS011;37210;50.058;8.688;2023-11-19T11:09:12;8.32;;;4.65;;
51148;SDS011;37210;50.058;8.688;2023-11-19T11:11:41;11.02;;;7.43;;
51148;SDS011;37210;50.058;8.688;2023-11-19T11:14:14;6.47;;;3.42;;
51148;SDS011;37210;50.058;8.688;2023-11-19T11:16:46;6.60;;;3.35;;
51148;SDS011;37210;50.058;8.688;2023-11-19T11:19:15;6.03;;;4.30;;
51148;SDS011;37210;50.058;8.688;2023-11-19T11:21:45;7.38;;;4.03;;
51148;SDS011;37210;50.058;8.688;2023-11-19T11:24:25;4.50;;;2.65;;
51148;SDS011;37210;50.058;8.688;2023-11-19T11:27:39;7.00;;;4.50;;
51148;SDS011;37210;50.058;8.688;2023-11-19T11:30:31;4.97;;;2.75;;
51148;SDS011;37210;50.058;8.688;2023-11-19T11:33:19;9.45;;;4.03;;
51148;SDS011;37210;50.058;8.688;2023-11-19T11:36:04;33.78;;;27.70;;
51148;SDS011;37210;50.058;8.688;2023-11-19T11:38:44;26.23;;;20.38;;
51148;SDS011;37210;50.058;8.688;2023-11-19T11:41:17;42.50;;;37.72;;
51148;SDS011;37210;50.058;8.688;2023-11-19T11:43:47;19.10;;;16.70;;
51148;SDS011;37210;50.058;8.688;2023-11-19T11:49:26;16.17;;;11.80;;
51148;SDS011;37210;50.058;8.688;2023-11-19T11:52:02;4.28;;;3.08;;
51148;SDS011;37210;50.058;8.688;2023-11-19T11:54:32;10.82;;;3.55;;
51148;SDS011;37210;50.058;8.688;2023-11-19T11:57:01;6.57;;;2.50;;
51148;SDS011;37210;50.058;8.688;2023-11-19T11:59:37;7.30;;;2.67;;
51148;SDS011;37210;50.058;8.688;2023-11-19T12:02:15;8.35;;;2.75;;
51148;SDS011;37210;50.058;8.688;2023-11-19T12:04:49;7.00;;;2.72;;
51148;SDS011;37210;50.058;8.688;2023-11-19T12:07:19;4.38;;;2.55;;
51148;SDS011;37210;50.058;8.688;2023-11-19T12:09:51;4.03;;;2.47;;
51148;SDS011;37210;50.058;8.688;2023-11-19T12:12:33;5.82;;;2.20;;
51148;SDS011;37210;50.058;8.688;2023-11-19T12:15:02;6.38;;;2.15;;
51148;SDS011;37210;50.058;8.688;2023-11-19T12:17:42;4.85;;;2.40;;
51148;SDS011;37210;50.058;8.688;2023-11-19T12:20:16;4.95;;;2.45;;
51148;SDS011;37210;50.058;8.688;2023-11-19T12:22:45;8.73;;;2.92;;
51148;SDS011;37210;50.058;8.688;2023-11-19T12:25:16;8.13;;;2.60;;
51148;SDS011;37210;50.058;8.688;2023-11-19T12:27:46;6.25;;;2.83;;
51148;SDS011;37210;50.058;8.688;2023-11-19T12:30:17;5.43;;;2.75;;
51148;SDS011;37210;50.058;8.688;2023-11-19T12:32:48;8.88;;;2.97;;
51148;SDS011;37210;50.058;8.688;2023-11-19T12:35:16;6.30;;;2.40;;
51148;SDS011;37210;50.058;8.688;2023-11-19T12:37:44;7.32;;;2.22;;
51148;SDS011;37210;50.058;8.688;2023-11-19T12:40:17;6.00;;;2.40;;
51148;SDS011;37210;50.058;8.688;2023-11-19T12:42:47;7.10;;;2.72;;
51148;SDS011;37210;50.058;8.688;2023-11-19T12:45:15;6.05;;;2.50;;
51148;SDS011;37210;50.058;8.688;2023-11-19T12:47:45;7.30;;;2.20;;
51148;SDS011;37210;50.058;8.688;2023-11-19T12:50:15;7.22;;;2.42;;
51148;SDS011;37210;50.058;8.688;2023-11-19T12:52:55;3.28;;;2.30;;
51148;SDS011;37210;50.058;8.688;2023-11-19T12:55:28;5.75;;;2.65;;
51148;SDS011;37210;50.058;8.688;2023-11-19T12:57:58;4.22;;;2.47;;
51148;SDS011;37210;50.058;8.688;2023-11-19T13:00:26;4.63;;;2.53;;
51148;SDS011;37210;50.058;8.688;2023-11-19T13:02:55;4.60;;;2.30;;
51148;SDS011;37210;50.058;8.688;2023-11-19T13:05:25;3.78;;;2.20;;
51148;SDS011;37210;50.058;8.688;2023-11-19T13:07:58;6.95;;;2.45;;
51148;SDS011;37210;50.058;8.688;2023-11-19T13:10:29;3.70;;;2.08;;
51148;SDS011;37210;50.058;8.688;2023-11-19T13:13:00;6.25;;;2.53;;
51148;SDS011;37210;50.058;8.688;2023-11-19T13:15:32;6.30;;;2.78;;
51148;SDS011;37210;50.058;8.688;2023-11-19T13:18:00;6.45;;;2.63;;
51148;SDS011;37210;50.058;8.688;2023-11-19T13:20:32;5.85;;;2.28;;
51148;SDS011;37210;50.058;8.688;2023-11-19T13:23:00;4.95;;;2.15;;
51148;SDS011;37210;50.058;8.688;2023-11-19T13:25:31;5.43;;;2.35;;
51148;SDS011;37210;50.058;8.688;2023-11-19T13:27:59;5.75;;;2.25;;
51148;SDS011;37210;50.058;8.688;2023-11-19T13:30:27;4.53;;;2.45;;
51148;SDS011;37210;50.058;8.688;2023-11-19T13:32:56;5.72;;;2.20;;
51148;SDS011;37210;50.058;8.688;2023-11-19T13:35:23;2.72;;;1.70;;
51148;SDS011;37210;50.058;8.688;2023-11-19T13:37:53;3.55;;;1.83;;
51148;SDS011;37210;50.058;8.688;2023-11-19T13:40:20;6.38;;;2.25;;
51148;SDS011;37210;50.058;8.688;2023-11-19T13:42:51;5.93;;;2.10;;
51148;SDS011;37210;50.058;8.688;2023-11-19T13:45:19;6.82;;;2.25;;
51148;SDS011;37210;50.058;8.688;2023-11-19T13:47:47;5.63;;;2.00;;
51148;SDS011;37210;50.058;8.688;2023-11-19T13:50:15;6.75;;;2.53;;
51148;SDS011;37210;50.058;8.688;2023-11-19T13:52:44;4.72;;;2.20;;
51148;SDS011;37210;50.058;8.688;2023-11-19T13:55:13;3.75;;;1.92;;
51148;SDS011;37210;50.058;8.688;2023-11-19T13:57:41;5.00;;;2.13;;
51148;SDS011;37210;50.058;8.688;2023-11-19T14:00:11;5.88;;;2.25;;
51148;SDS011;37210;50.058;8.688;2023-11-19T14:02:42;3.75;;;1.80;;
51148;SDS011;37210;50.058;8.688;2023-11-19T14:05:10;4.22;;;1.65;;
51148;SDS011;37210;50.058;8.688;2023-11-19T14:07:37;6.95;;;2.30;;
51148;SDS011;37210;50.058;8.688;2023-11-19T14:10:06;5.53;;;2.22;;
51148;SDS011;37210;50.058;8.688;2023-11-19T14:12:37;6.95;;;2.20;;
51148;SDS011;37210;50.058;8.688;2023-11-19T14:15:05;7.75;;;2.30;;
51148;SDS011;37210;50.058;8.688;2023-11-19T14:17:36;6.75;;;1.98;;
51148;SDS011;37210;50.058;8.688;2023-11-19T14:20:04;3.20;;;1.73;;
51148;SDS011;37210;50.058;8.688;2023-11-19T14:22:38;5.70;;;2.40;;
51148;SDS011;37210;50.058;8.688;2023-11-19T14:25:07;8.70;;;2.53;;
51148;SDS011;37210;50.058;8.688;2023-11-19T14:27:36;4.30;;;1.92;;
51148;SDS011;37210;50.058;8.688;2023-11-19T14:30:07;4.47;;;2.28;;
51148;SDS011;37210;50.058;8.688;2023-11-19T14:32:39;4.15;;;2.30;;
51148;SDS011;37210;50.058;8.688;2023-11-19T14:35:10;8.82;;;4.53;;
51148;SDS011;37210;50.058;8.688;2023-11-19T14:37:38;9.77;;;4.80;;
51148;SDS011;37210;50.058;8.688;2023-11-19T14:40:06;5.85;;;3.00;;
51148;SDS011;37210;50.058;8.688;2023-11-19T14:42:37;4.78;;;2.13;;
51148;SDS011;37210;50.058;8.688;2023-11-19T14:45:06;4.70;;;2.47;;
51148;SDS011;37210;50.058;8.688;2023-11-19T14:47:39;6.13;;;2.30;;
51148;SDS011;37210;50.058;8.688;2023-11-19T14:50:07;7.43;;;2.40;;
51148;SDS011;37210;50.058;8.688;2023-11-19T14:52:34;5.88;;;2.17;;
51148;SDS011;37210;50.058;8.688;2023-11-19T14:55:02;5.75;;;2.25;;
51148;SDS011;37210;50.058;8.688;2023-11-19T14:57:32;5.82;;;2.28;;
51148;SDS011;37210;50.058;8.688;2023-11-19T15:00:05;5.22;;;2.53;;
51148;SDS011;37210;50.058;8.688;2023-11-19T15:02:40;3.72;;;2.42;;
51148;SDS011;37210;50.058;8.688;2023-11-19T15:05:08;6.20;;;2.63;;
51148;SDS011;37210;50.058;8.688;2023-11-19T15:07:36;5.38;;;2.55;;